createdAt,value
2018-03-07T00:01:45.833Z,6.37
2018-03-07T00:04:13.312Z,5.80
2018-03-07T00:06:40.765Z,6.57
2018-03-07T00:09:08.218Z,5.80
2018-03-07T00:11:35.676Z,6.23
2018-03-07T00:14:03.892Z,5.60
2018-03-07T00:16:31.337Z,5.93
2018-03-07T00:18:58.800Z,6.00
2018-03-07T00:21:26.244Z,5.97
2018-03-07T00:23:54.467Z,5.27
2018-03-07T00:26:21.908Z,6.30
2018-03-07T00:28:49.335Z,5.63
2018-03-07T00:31:17.549Z,5.60
2018-03-07T00:33:45.009Z,6.50
2018-03-07T00:36:12.478Z,7.37
2018-03-07T00:38:39.912Z,6.37
2018-03-07T00:41:08.135Z,7.80
2018-03-07T00:43:35.593Z,10.23
2018-03-07T00:46:03.039Z,9.13
2018-03-07T00:48:30.489Z,10.60
2018-03-07T00:50:57.966Z,11.53
2018-03-07T00:53:25.430Z,13.53
2018-03-07T00:55:52.895Z,13.93
2018-03-07T00:58:20.337Z,11.97
2018-03-07T01:00:48.560Z,14.60
2018-03-07T01:03:16.024Z,12.43
2018-03-07T01:05:43.463Z,14.43
2018-03-07T01:08:10.928Z,15.00
2018-03-07T01:10:38.392Z,15.33
2018-03-07T01:13:05.831Z,13.47
2018-03-07T01:15:34.066Z,15.80
2018-03-07T01:18:01.511Z,12.73
2018-03-07T01:20:28.943Z,15.67
2018-03-07T01:22:56.418Z,15.30
2018-03-07T01:25:23.866Z,13.73
2018-03-07T01:27:51.344Z,14.63
2018-03-07T01:30:18.801Z,14.73
2018-03-07T01:32:46.248Z,12.10
2018-03-07T01:35:14.488Z,12.77
2018-03-07T01:37:41.926Z,12.70
2018-03-07T01:40:09.403Z,14.50
2018-03-07T01:42:36.870Z,14.03
2018-03-07T01:45:04.323Z,12.37
2018-03-07T01:47:31.775Z,13.37
2018-03-07T01:49:59.240Z,12.87
2018-03-07T01:52:26.698Z,16.40
2018-03-07T01:54:54.151Z,13.77
2018-03-07T01:57:21.613Z,16.03
2018-03-07T01:59:49.065Z,12.40
2018-03-07T02:02:16.515Z,14.20
2018-03-07T02:04:44.750Z,14.33
2018-03-07T02:07:12.193Z,15.50
2018-03-07T02:09:39.653Z,12.10
2018-03-07T02:12:07.091Z,14.03
2018-03-07T02:14:34.596Z,12.77
2018-03-07T02:17:02.020Z,15.63
2018-03-07T02:19:29.506Z,14.40
2018-03-07T02:21:56.976Z,12.93
2018-03-07T02:24:24.418Z,13.20
2018-03-07T02:26:51.886Z,13.00
2018-03-07T02:29:19.359Z,15.17
2018-03-07T02:31:46.810Z,13.87
2018-03-07T02:34:14.275Z,14.00
2018-03-07T02:36:41.743Z,14.70
2018-03-07T02:39:09.190Z,13.57
2018-03-07T02:41:36.650Z,16.97
2018-03-07T02:44:04.097Z,17.53
2018-03-07T02:46:32.329Z,16.93
2018-03-07T02:48:59.777Z,22.30
2018-03-07T02:51:27.250Z,22.87
2018-03-07T02:53:54.724Z,23.20
2018-03-07T02:56:22.177Z,23.70
2018-03-07T02:58:49.646Z,26.10
2018-03-07T03:01:17.112Z,26.83
2018-03-07T03:03:44.580Z,26.30
2018-03-07T03:06:12.023Z,25.97
2018-03-07T03:08:39.479Z,22.57
2018-03-07T03:11:06.922Z,27.00
2018-03-07T03:13:34.388Z,28.10
2018-03-07T03:16:01.865Z,27.40
2018-03-07T03:18:29.311Z,22.67
2018-03-07T03:20:56.780Z,25.03
2018-03-07T03:23:24.252Z,25.27
2018-03-07T03:25:51.710Z,21.60
2018-03-07T03:28:19.165Z,25.13
2018-03-07T03:30:46.645Z,23.43
2018-03-07T03:33:14.087Z,25.47
2018-03-07T03:35:41.535Z,25.37
2018-03-07T03:38:09.004Z,23.83
2018-03-07T03:40:37.207Z,24.20
2018-03-07T03:43:04.679Z,19.77
2018-03-07T03:45:32.123Z,22.80
2018-03-07T03:47:59.558Z,24.73
2018-03-07T03:50:27.804Z,24.43
2018-03-07T03:52:55.248Z,23.53
2018-03-07T03:55:22.712Z,22.93
2018-03-07T03:57:50.187Z,23.23
2018-03-07T04:00:17.645Z,20.87
2018-03-07T04:02:45.111Z,24.67
2018-03-07T04:05:12.612Z,26.07
2018-03-07T04:07:40.015Z,25.10
2018-03-07T04:10:07.464Z,25.20
2018-03-07T04:12:34.932Z,23.27
2018-03-07T04:15:02.396Z,23.20
2018-03-07T04:17:29.846Z,21.13
2018-03-07T04:19:57.304Z,28.80
2018-03-07T04:22:24.750Z,19.30
2018-03-07T04:24:52.968Z,27.63
2018-03-07T04:27:20.447Z,27.27
2018-03-07T04:29:47.874Z,30.07
2018-03-07T04:32:15.342Z,26.53
2018-03-07T04:34:42.810Z,29.73
2018-03-07T04:37:10.255Z,27.27
2018-03-07T04:39:37.714Z,29.50
2018-03-07T04:42:05.942Z,23.87
2018-03-07T04:44:33.406Z,29.33
2018-03-07T04:47:00.867Z,29.10
2018-03-07T04:49:28.336Z,29.73
2018-03-07T04:51:55.801Z,31.23
2018-03-07T04:54:24.014Z,29.87
2018-03-07T04:56:52.219Z,28.47
2018-03-07T04:59:19.692Z,28.63
2018-03-07T05:01:47.134Z,29.50
2018-03-07T05:04:14.587Z,30.30
2018-03-07T05:06:42.810Z,30.77
2018-03-07T05:09:11.052Z,31.57
2018-03-07T05:11:39.270Z,30.23
2018-03-07T05:14:06.730Z,31.13
2018-03-07T05:16:34.198Z,31.33
2018-03-07T05:19:01.654Z,29.93
2018-03-07T05:21:29.118Z,31.27
2018-03-07T05:23:56.596Z,29.53
2018-03-07T05:26:24.062Z,31.23
2018-03-07T05:28:51.513Z,31.60
2018-03-07T05:31:19.000Z,30.63
2018-03-07T05:33:46.450Z,31.53
2018-03-07T05:36:14.662Z,25.47
2018-03-07T05:38:42.892Z,29.60
2018-03-07T05:41:10.349Z,27.20
2018-03-07T05:43:37.801Z,30.87
2018-03-07T05:46:05.267Z,29.97
2018-03-07T05:48:32.733Z,28.47
2018-03-07T05:51:00.200Z,28.87
2018-03-07T05:53:27.659Z,27.67
2018-03-07T05:55:55.350Z,29.60
2018-03-07T05:58:22.828Z,29.87
2018-03-07T06:00:50.814Z,31.03
2018-03-07T06:03:18.277Z,29.63
2018-03-07T06:05:45.738Z,30.93
2018-03-07T06:08:13.878Z,30.67
2018-03-07T06:10:41.335Z,30.37
2018-03-07T06:13:08.806Z,28.03
2018-03-07T06:15:36.263Z,29.40
2018-03-07T06:18:03.712Z,29.50
2018-03-07T06:20:31.179Z,26.47
2018-03-07T06:22:58.651Z,28.40
2018-03-07T06:25:26.116Z,27.30
2018-03-07T06:27:53.580Z,27.77
2018-03-07T06:30:21.034Z,29.63
2018-03-07T06:32:49.605Z,28.83
2018-03-07T06:35:17.095Z,28.90
2018-03-07T06:37:45.048Z,29.37
2018-03-07T06:40:12.513Z,30.03
2018-03-07T06:42:39.989Z,28.03
2018-03-07T06:45:07.455Z,31.33
2018-03-07T06:47:34.886Z,30.83
2018-03-07T06:50:02.358Z,28.47
2018-03-07T06:52:29.809Z,29.30
2018-03-07T06:54:58.027Z,30.27
2018-03-07T06:57:25.488Z,29.77
2018-03-07T06:59:52.946Z,32.00
2018-03-07T07:02:20.397Z,30.17
2018-03-07T07:04:47.860Z,33.80
2018-03-07T07:07:15.319Z,33.83
2018-03-07T07:09:42.790Z,29.57
2018-03-07T07:12:10.243Z,30.67
2018-03-07T07:14:37.724Z,29.00
2018-03-07T07:17:05.169Z,30.17
2018-03-07T07:19:32.636Z,32.67
2018-03-07T07:22:00.197Z,33.50
2018-03-07T07:24:27.705Z,29.10
2018-03-07T07:26:55.091Z,30.57
2018-03-07T07:29:22.614Z,31.63
2018-03-07T07:31:50.095Z,34.33
2018-03-07T07:34:17.531Z,33.80
2018-03-07T07:36:44.987Z,32.77
2018-03-07T07:39:12.433Z,31.30
2018-03-07T07:41:39.871Z,32.87
2018-03-07T07:44:08.099Z,31.30
2018-03-07T07:46:35.558Z,31.63
2018-03-07T07:49:03.012Z,32.20
2018-03-07T07:51:30.481Z,31.67
2018-03-07T07:53:57.940Z,33.17
2018-03-07T07:56:25.406Z,30.43
2018-03-07T07:58:52.851Z,30.47
2018-03-07T08:01:21.109Z,31.47
2018-03-07T08:03:49.342Z,32.27
2018-03-07T08:06:16.791Z,32.07
2018-03-07T08:08:44.247Z,32.93
2018-03-07T08:11:11.699Z,31.30
2018-03-07T08:13:39.166Z,32.17
2018-03-07T08:16:06.625Z,33.83
2018-03-07T08:18:34.089Z,33.97
2018-03-07T08:21:01.541Z,33.13
2018-03-07T08:23:29.003Z,31.77
2018-03-07T08:25:56.460Z,32.20
2018-03-07T08:28:24.675Z,32.03
2018-03-07T08:30:52.117Z,33.53
2018-03-07T08:33:19.576Z,32.10
2018-03-07T08:35:47.046Z,32.53
2018-03-07T08:38:14.508Z,33.20
2018-03-07T08:40:41.950Z,32.70
2018-03-07T08:43:10.173Z,31.87
2018-03-07T08:45:37.617Z,27.67
2018-03-07T08:48:05.077Z,31.93
2018-03-07T08:50:32.511Z,32.33
2018-03-07T08:53:00.742Z,29.80
2018-03-07T08:55:28.495Z,30.73
2018-03-07T08:57:55.956Z,29.97
2018-03-07T09:00:23.424Z,32.27
2018-03-07T09:02:50.886Z,29.80
2018-03-07T09:05:18.366Z,30.70
2018-03-07T09:07:45.790Z,31.93
2018-03-07T09:10:13.245Z,30.77
2018-03-07T09:12:41.434Z,30.27
2018-03-07T09:15:08.875Z,30.10
2018-03-07T09:17:37.121Z,28.83
2018-03-07T09:20:04.597Z,27.17
2018-03-07T09:22:32.034Z,27.83
2018-03-07T09:24:59.487Z,27.60
2018-03-07T09:27:26.948Z,29.03
2018-03-07T09:29:54.420Z,25.97
2018-03-07T09:32:21.864Z,25.87
2018-03-07T09:34:49.364Z,25.00
2018-03-07T09:37:16.847Z,27.13
2018-03-07T09:39:44.287Z,26.13
2018-03-07T09:42:11.731Z,26.03
2018-03-07T09:44:39.194Z,26.93
2018-03-07T09:47:06.642Z,27.13
2018-03-07T09:49:34.105Z,27.80
2018-03-07T09:52:02.382Z,27.30
2018-03-07T09:54:29.843Z,26.63
2018-03-07T09:56:57.290Z,25.27
2018-03-07T09:59:27.343Z,27.63
2018-03-07T10:01:54.790Z,26.60
2018-03-07T10:04:23.029Z,27.23
2018-03-07T10:06:50.456Z,25.13
2018-03-07T10:09:17.926Z,25.33
2018-03-07T10:11:45.391Z,27.30
2018-03-07T10:14:12.836Z,28.03
2018-03-07T10:16:40.345Z,27.67
2018-03-07T10:19:07.752Z,25.63
2018-03-07T10:21:35.210Z,25.80
2018-03-07T10:24:02.663Z,27.23
2018-03-07T10:26:30.130Z,28.20
2018-03-07T10:28:57.590Z,29.70
2018-03-07T10:31:25.049Z,27.80
2018-03-07T10:33:52.494Z,27.43
2018-03-07T10:36:20.703Z,29.47
2018-03-07T10:38:48.180Z,30.57
2018-03-07T10:41:15.605Z,29.13
2018-03-07T10:43:43.825Z,28.73
2018-03-07T10:46:11.280Z,31.37
2018-03-07T10:48:38.736Z,29.77
2018-03-07T10:51:06.215Z,27.67
2018-03-07T10:53:33.665Z,22.67
2018-03-07T10:56:01.116Z,20.00
2018-03-07T10:58:28.570Z,19.43
2018-03-07T11:00:56.795Z,18.80
2018-03-07T11:03:24.236Z,19.00
2018-03-07T11:05:51.678Z,18.50
2018-03-07T11:08:19.118Z,17.23
2018-03-07T11:10:47.344Z,14.50
2018-03-07T11:13:14.808Z,15.47
2018-03-07T11:15:42.290Z,16.30
2018-03-07T11:18:09.732Z,16.40
2018-03-07T11:20:37.243Z,17.10
2018-03-07T11:23:04.670Z,16.40
2018-03-07T11:25:32.138Z,17.03
2018-03-07T11:27:59.618Z,16.23
2018-03-07T11:30:27.060Z,17.03
2018-03-07T11:32:54.547Z,17.40
2018-03-07T11:35:21.986Z,17.20
2018-03-07T11:37:49.458Z,17.07
2018-03-07T11:40:16.905Z,16.67
2018-03-07T11:42:44.343Z,16.30
2018-03-07T11:45:11.827Z,16.90
2018-03-07T11:47:39.281Z,16.07
2018-03-07T11:50:06.740Z,16.20
2018-03-07T11:52:34.195Z,15.97
2018-03-07T11:55:01.643Z,16.13
2018-03-07T11:57:29.092Z,13.67
2018-03-07T11:59:57.535Z,15.10
2018-03-07T12:02:24.971Z,17.30
2018-03-07T12:04:52.434Z,16.23
2018-03-07T12:07:19.918Z,15.77
2018-03-07T12:09:47.355Z,15.83
2018-03-07T12:12:14.818Z,16.63
2018-03-07T12:14:42.269Z,16.53
2018-03-07T12:17:09.726Z,16.30
2018-03-07T12:19:37.942Z,15.70
2018-03-07T12:22:05.392Z,16.20
2018-03-07T12:24:32.842Z,16.00
2018-03-07T12:27:00.290Z,15.17
2018-03-07T12:29:28.491Z,16.00
2018-03-07T12:31:55.966Z,16.07
2018-03-07T12:34:23.391Z,15.77
2018-03-07T12:36:51.613Z,15.93
2018-03-07T12:39:19.057Z,15.27
2018-03-07T12:41:46.573Z,15.43
2018-03-07T12:44:13.991Z,15.43
2018-03-07T12:46:41.451Z,15.10
2018-03-07T12:49:08.891Z,15.90
2018-03-07T12:51:37.116Z,15.10
2018-03-07T12:54:04.576Z,15.77
2018-03-07T12:56:32.019Z,16.03
2018-03-07T12:58:59.493Z,16.50
2018-03-07T13:01:26.918Z,16.60
2018-03-07T13:03:55.148Z,17.27
2018-03-07T13:06:22.616Z,18.30
2018-03-07T13:08:50.071Z,17.80
2018-03-07T13:11:17.536Z,19.67
2018-03-07T13:13:45.031Z,20.43
2018-03-07T13:16:12.488Z,18.97
2018-03-07T13:18:39.945Z,19.77
2018-03-07T13:21:07.437Z,21.10
2018-03-07T13:23:35.647Z,20.87
2018-03-07T13:26:03.121Z,19.90
2018-03-07T13:28:30.563Z,20.23
2018-03-07T13:30:58.037Z,19.23
2018-03-07T13:33:25.495Z,19.53
2018-03-07T13:35:52.957Z,17.97
2018-03-07T13:38:20.451Z,17.23
2018-03-07T13:40:47.895Z,18.37
2018-03-07T13:43:15.328Z,17.53
2018-03-07T13:45:42.777Z,17.17
2018-03-07T13:48:10.994Z,17.70
2018-03-07T13:50:38.463Z,16.97
2018-03-07T13:53:05.918Z,18.07
2018-03-07T13:55:33.381Z,19.10
2018-03-07T13:58:00.843Z,19.23
2018-03-07T14:00:28.275Z,15.73
2018-03-07T14:02:56.503Z,15.97
2018-03-07T14:05:23.995Z,14.63
2018-03-07T14:07:51.431Z,15.00
2018-03-07T14:10:18.879Z,14.87
2018-03-07T14:12:46.335Z,16.40
2018-03-07T14:15:13.784Z,15.80
2018-03-07T14:17:41.347Z,16.90
2018-03-07T14:20:08.779Z,16.63
2018-03-07T14:22:36.247Z,16.50
2018-03-07T14:25:03.716Z,16.17
2018-03-07T14:27:32.181Z,17.37
2018-03-07T14:29:59.641Z,17.00
2018-03-07T14:32:27.833Z,17.17
2018-03-07T14:34:55.279Z,17.70
2018-03-07T14:37:22.731Z,17.33
2018-03-07T14:39:50.188Z,17.47
2018-03-07T14:42:17.630Z,16.47
2018-03-07T14:44:45.081Z,16.67
2018-03-07T14:47:12.545Z,16.57
2018-03-07T14:49:39.995Z,16.47
2018-03-07T14:52:07.434Z,16.33
2018-03-07T14:54:34.883Z,16.30
2018-03-07T14:57:02.327Z,16.40
2018-03-07T14:59:29.822Z,17.37
2018-03-07T15:01:57.254Z,16.27
2018-03-07T15:04:24.705Z,16.83
2018-03-07T15:06:52.163Z,17.50
2018-03-07T15:09:19.621Z,18.23
2018-03-07T15:11:47.083Z,15.90
2018-03-07T15:14:14.530Z,15.90
2018-03-07T15:16:41.992Z,14.03
2018-03-07T15:19:09.457Z,13.60
2018-03-07T15:21:36.890Z,12.40
2018-03-07T15:24:05.136Z,13.30
2018-03-07T15:26:32.585Z,11.77
2018-03-07T15:29:00.053Z,11.57
2018-03-07T15:31:27.533Z,11.90
2018-03-07T15:33:55.000Z,11.57
2018-03-07T15:36:22.436Z,10.53
2018-03-07T15:38:49.913Z,11.90
2018-03-07T15:41:17.379Z,9.83
2018-03-07T15:43:44.840Z,10.53
2018-03-07T15:46:12.296Z,11.13
2018-03-07T15:48:39.746Z,10.90
2018-03-07T15:51:07.262Z,11.70
2018-03-07T15:53:34.694Z,10.67
2018-03-07T15:56:02.150Z,11.13
2018-03-07T15:58:29.604Z,11.50
2018-03-07T16:00:57.077Z,10.87
2018-03-07T16:03:24.548Z,11.83
2018-03-07T16:05:52.016Z,12.30
2018-03-07T16:08:19.467Z,12.77
2018-03-07T16:10:46.938Z,11.40
2018-03-07T16:13:14.389Z,12.00
2018-03-07T16:15:41.845Z,12.50
2018-03-07T16:18:09.292Z,13.30
2018-03-07T16:20:36.760Z,12.77
2018-03-07T16:23:04.225Z,12.70
2018-03-07T16:25:31.681Z,13.80
2018-03-07T16:27:59.133Z,13.50
2018-03-07T16:30:26.588Z,13.13
2018-03-07T16:32:54.023Z,12.97
2018-03-07T16:35:22.237Z,11.97
2018-03-07T16:37:49.730Z,13.23
2018-03-07T16:40:17.163Z,12.37
2018-03-07T16:42:44.621Z,12.83
2018-03-07T16:45:12.060Z,13.37
2018-03-07T16:47:40.267Z,13.10
2018-03-07T16:50:07.721Z,11.83
2018-03-07T16:52:35.163Z,13.50
2018-03-07T16:55:03.369Z,13.80
2018-03-07T16:57:30.813Z,13.23
2018-03-07T16:59:59.031Z,15.80
2018-03-07T17:02:26.476Z,15.73
2018-03-07T17:04:53.922Z,15.60
2018-03-07T17:07:22.152Z,14.03
2018-03-07T17:09:49.615Z,15.53
2018-03-07T17:12:17.062Z,15.63
2018-03-07T17:14:44.535Z,16.25
2018-03-07T17:17:12.428Z,16.33
2018-03-07T17:19:40.621Z,14.37
2018-03-07T17:22:08.917Z,16.67
2018-03-07T17:24:37.117Z,16.90
2018-03-07T17:27:04.590Z,14.63
2018-03-07T17:29:32.031Z,14.47
2018-03-07T17:31:59.475Z,13.57
2018-03-07T17:34:27.684Z,12.43
2018-03-07T17:36:55.156Z,12.77
2018-03-07T17:39:22.578Z,11.87
2018-03-07T17:41:50.788Z,11.60
2018-03-07T17:44:18.268Z,11.63
2018-03-07T17:46:45.714Z,11.53
2018-03-07T17:49:13.168Z,13.23
2018-03-07T17:51:40.640Z,13.87
2018-03-07T17:54:08.103Z,12.93
2018-03-07T17:56:35.546Z,13.30
2018-03-07T17:59:03.760Z,14.07
2018-03-07T18:01:31.232Z,13.83
2018-03-07T18:03:58.677Z,15.10
2018-03-07T18:06:26.158Z,12.90
2018-03-07T18:08:53.618Z,13.30
2018-03-07T18:11:21.071Z,13.83
2018-03-07T18:13:49.546Z,13.63
2018-03-07T18:16:17.010Z,14.63
2018-03-07T18:18:44.522Z,13.60
2018-03-07T18:21:11.974Z,13.33
2018-03-07T18:23:39.439Z,13.30
2018-03-07T18:26:06.907Z,12.83
2018-03-07T18:28:34.392Z,13.07
2018-03-07T18:31:02.607Z,13.33
2018-03-07T18:33:30.067Z,13.73
2018-03-07T18:35:57.531Z,13.63
2018-03-07T18:38:24.996Z,13.93
2018-03-07T18:40:52.452Z,13.63
2018-03-07T18:43:19.891Z,14.43
2018-03-07T18:45:48.143Z,13.40
2018-03-07T18:48:16.543Z,14.50
2018-03-07T18:50:43.990Z,15.07
2018-03-07T18:53:11.429Z,15.50
2018-03-07T18:55:38.883Z,15.87
2018-03-07T18:58:06.314Z,15.43
2018-03-07T19:00:33.764Z,15.30
2018-03-07T19:03:01.971Z,15.50
2018-03-07T19:05:29.414Z,15.43
2018-03-07T19:07:57.683Z,15.77
2018-03-07T19:10:32.670Z,16.53
2018-03-07T19:13:00.115Z,16.50
2018-03-07T19:15:27.576Z,16.70
2018-03-07T19:17:55.018Z,16.30
2018-03-07T19:20:23.251Z,16.20
2018-03-07T19:22:50.722Z,17.47
2018-03-07T19:25:18.175Z,16.33
2018-03-07T19:27:45.627Z,15.77
2018-03-07T19:30:13.091Z,17.00
2018-03-07T19:32:40.530Z,17.03
2018-03-07T19:35:08.002Z,15.23
2018-03-07T19:37:35.438Z,14.57
2018-03-07T19:40:03.645Z,13.87
2018-03-07T19:42:31.119Z,13.23
2018-03-07T19:44:58.573Z,13.73
2018-03-07T19:47:26.035Z,14.40
2018-03-07T19:49:53.498Z,14.47
2018-03-07T19:52:20.962Z,13.13
2018-03-07T19:54:48.418Z,13.50
2018-03-07T19:57:15.880Z,13.13
2018-03-07T19:59:43.352Z,13.80
2018-03-07T20:02:10.803Z,13.50
2018-03-07T20:04:38.244Z,14.73
2018-03-07T20:07:06.457Z,14.43
2018-03-07T20:09:33.886Z,13.67
2018-03-07T20:12:01.941Z,13.93
2018-03-07T20:14:29.374Z,12.90
2018-03-07T20:16:56.846Z,12.87
2018-03-07T20:19:24.299Z,12.63
2018-03-07T20:21:52.496Z,11.43
2018-03-07T20:24:19.951Z,11.40
2018-03-07T20:26:47.398Z,12.20
2018-03-07T20:29:14.858Z,10.90
2018-03-07T20:31:42.295Z,10.20
2018-03-07T20:34:09.745Z,10.10
2018-03-07T20:36:37.233Z,10.17
2018-03-07T20:39:04.689Z,10.90
2018-03-07T20:41:32.146Z,9.97
2018-03-07T20:43:59.582Z,9.80
2018-03-07T20:46:27.806Z,10.77
2018-03-07T20:48:55.238Z,10.03
2018-03-07T20:51:22.684Z,10.17
2018-03-07T20:53:50.904Z,10.03
2018-03-07T20:56:18.751Z,9.13
2018-03-07T20:58:46.953Z,9.77
2018-03-07T21:01:14.411Z,9.23
2018-03-07T21:03:41.833Z,9.77
2018-03-07T21:06:09.997Z,8.80
2018-03-07T21:08:37.436Z,8.20
2018-03-07T21:11:04.890Z,8.17
2018-03-07T21:13:32.317Z,8.83
2018-03-07T21:16:00.527Z,7.70
2018-03-07T21:18:27.976Z,7.40
2018-03-07T21:20:55.415Z,7.50
2018-03-07T21:23:23.645Z,6.47
2018-03-07T21:25:51.098Z,6.70
2018-03-07T21:28:18.547Z,7.27
2018-03-07T21:30:46.900Z,7.00
2018-03-07T21:33:15.110Z,6.77
2018-03-07T21:35:42.547Z,6.20
2018-03-07T21:38:10.748Z,5.70
2018-03-07T21:40:38.172Z,5.67
2018-03-07T21:43:05.618Z,6.17
2018-03-07T21:45:33.063Z,6.83
2018-03-07T21:48:03.004Z,6.60
2018-03-07T21:50:30.434Z,6.67
2018-03-07T21:52:57.918Z,6.37
2018-03-07T21:55:25.354Z,6.27
2018-03-07T21:57:52.788Z,6.30
2018-03-07T22:00:20.226Z,6.73
2018-03-07T22:02:47.665Z,7.03
2018-03-07T22:05:15.132Z,7.23
2018-03-07T22:07:42.555Z,7.13
2018-03-07T22:10:09.995Z,7.37
2018-03-07T22:12:38.196Z,6.60
2018-03-07T22:15:05.644Z,7.87
2018-03-07T22:17:33.835Z,8.30
2018-03-07T22:20:01.295Z,7.57
2018-03-07T22:22:28.716Z,8.07
2018-03-07T22:24:56.141Z,8.17
2018-03-07T22:27:23.587Z,7.40
2018-03-07T22:29:51.920Z,7.70
2018-03-07T22:32:20.119Z,6.90
2018-03-07T22:34:48.398Z,7.63
2018-03-07T22:37:16.600Z,8.23
2018-03-07T22:39:44.039Z,8.17
2018-03-07T22:42:12.244Z,8.43
2018-03-07T22:44:39.665Z,8.80
2018-03-07T22:47:08.258Z,8.40
2018-03-07T22:49:35.691Z,7.97
2018-03-07T22:52:03.134Z,7.80
2018-03-07T22:54:30.566Z,8.23
2018-03-07T22:57:00.833Z,7.83
2018-03-07T22:59:30.835Z,9.33
2018-03-07T23:01:58.250Z,8.37
2018-03-07T23:04:25.680Z,8.70
2018-03-07T23:06:53.120Z,9.50
2018-03-07T23:09:20.553Z,9.97
2018-03-07T23:11:49.668Z,10.00
2018-03-07T23:14:17.110Z,9.57
2018-03-07T23:16:45.310Z,9.80
2018-03-07T23:19:12.755Z,10.37
2018-03-07T23:21:40.970Z,10.30
2018-03-07T23:24:08.411Z,11.27
2018-03-07T23:26:36.606Z,11.27
2018-03-07T23:29:04.054Z,11.07
2018-03-07T23:31:32.253Z,12.37
2018-03-07T23:33:59.743Z,11.50
2018-03-07T23:36:27.186Z,13.10
2018-03-07T23:38:54.642Z,12.77
2018-03-07T23:41:22.073Z,13.73
2018-03-07T23:43:50.284Z,12.87
2018-03-07T23:46:17.727Z,13.10
2018-03-07T23:48:45.934Z,13.37
2018-03-07T23:51:13.375Z,14.17
2018-03-07T23:53:40.809Z,13.07
2018-03-07T23:56:09.012Z,15.37
2018-03-07T23:58:36.467Z,14.87
